Bee House, Texas
Current Conditions -  °F | °C
As of 6:55 AM on Saturday 01 Nov 2014 (Local Time) from KMNZ Reporting Station
Clear Clear  
Wind Chill: 41°   Ceiling: Unl
Heat Index: 41°   Visibility: 10mi
Dew Point: 34°   Wind: 3mph
Humidity: 75%   Direction: 100°E
Pressure: 30.38"   Gusts: NA
Location:  31.463°N, 98.243°W
Report Text: KMNZ 011155Z AUTO 10003KT 10SM CLR 05/01 A3038 RMK AO2 T00510010 10091 20050
Loading
Personal Weather Stations






























Interactive Weather Map
Tropical Storm Tracking
New forecast layout! Learn more

10-Day Weather Forecast

Advertisements
Track Severe Weather on mobile